Station History

Weather Underground - logo

Station Historical Data
Daily Summary for February 17, 2018 Units:  Both    English   Metric
« Previous Day
Next Day »
Daily Weekly Monthly Yearly Custom
  High: Low: Average:
Temperature: 70.1 °F /  21.2 °C 36.7 °F /  2.6 °C 51.7 °F /  10.9 °C
Dew Point: 41.4 °F /  5.2 °C 33.0 °F /  0.6 °C 37 °F /  2.8 °C
Humidity: 89 % 27 % 62 %
Wind Speed: 6.9 mph /  11.1 km/h - 0.8 mph /  1.3 km/h
Wind Gust: 3.5 mph /  5.6 km/h - -
Wind:- - WSW
Pressure: 30.21 in /  1022.9 hPa 30.02 in /  1016.5 hPa -
Precipitation: 0.00 in /  0 mm    
Historical Graphs
 
 
Tabular Data for February 17, 2018
Time Temperature Dew Point Pressure Wind Wind Speed Wind Gust Humidity Rainfall Rate (Hourly)
00:00 41.9 °F /  5.5 °C 36.2 °F /  2.3 °C 30.20 in /  1022.6 hPa Calm     80 % 0.00 in /  0 mm
00:05 42.3 °F /  5.7 °C 36.6 °F /  2.6 °C 30.20 in /  1022.6 hPa Calm     80 % 0.00 in /  0 mm
00:10 42.2 °F /  5.7 °C 36.2 °F /  2.3 °C 30.20 in /  1022.6 hPa Calm     79 % 0.00 in /  0 mm
00:15 41.8 °F /  5.4 °C 35.8 °F /  2.1 °C 30.20 in /  1022.6 hPa Calm     79 % 0.00 in /  0 mm
00:20 41.5 °F /  5.3 °C 35.5 °F /  1.9 °C 30.20 in /  1022.6 hPa Calm     79 % 0.00 in /  0 mm
00:25 41.1 °F /  5.1 °C 35.4 °F /  1.9 °C 30.19 in /  1022.2 hPa Calm     80 % 0.00 in /  0 mm
00:30 40.9 °F /  4.9 °C 35.2 °F /  1.8 °C 30.19 in /  1022.2 hPa Calm     80 % 0.00 in /  0 mm
00:35 40.6 °F /  4.8 °C 35.2 °F /  1.8 °C 30.19 in /  1022.2 hPa Calm     81 % 0.00 in /  0 mm
00:41 40.1 °F /  4.5 °C 34.7 °F /  1.5 °C 30.20 in /  1022.6 hPa Calm     81 % 0.00 in /  0 mm
00:46 39.7 °F /  4.3 °C 34.7 °F /  1.5 °C 30.20 in /  1022.6 hPa Calm     82 % 0.00 in /  0 mm
00:51 39.5 °F /  4.2 °C 34.8 °F /  1.6 °C 30.20 in /  1022.6 hPa Calm     83 % 0.00 in /  0 mm
00:56 39.4 °F /  4.1 °C 34.7 °F /  1.5 °C 30.20 in /  1022.6 hPa Calm     83 % 0.00 in /  0 mm
01:01 39.3 °F /  4.1 °C 34.6 °F /  1.4 °C 30.20 in /  1022.6 hPa Calm     83 % 0.00 in /  0 mm
01:06 39.2 °F /  4 °C 34.5 °F /  1.4 °C 30.20 in /  1022.6 hPa Calm     83 % 0.00 in /  0 mm
01:11 38.9 °F /  3.8 °C 34.2 °F /  1.2 °C 30.20 in /  1022.6 hPa Calm     83 % 0.00 in /  0 mm
01:16 38.5 °F /  3.6 °C 33.8 °F /  1 °C 30.20 in /  1022.6 hPa Calm     83 % 0.00 in /  0 mm
01:21 38.5 °F /  3.6 °C 34.4 °F /  1.3 °C 30.20 in /  1022.6 hPa Calm     85 % 0.00 in /  0 mm
01:26 38.6 °F /  3.7 °C 34.8 °F /  1.6 °C 30.20 in /  1022.6 hPa Calm     86 % 0.00 in /  0 mm
01:31 39.0 °F /  3.9 °C 34.9 °F /  1.6 °C 30.20 in /  1022.6 hPa Calm     85 % 0.00 in /  0 mm
01:36 39.0 °F /  3.9 °C 34.9 °F /  1.6 °C 30.20 in /  1022.6 hPa Calm     85 % 0.00 in /  0 mm
01:41 39.1 °F /  3.9 °C 35.0 °F /  1.7 °C 30.20 in /  1022.6 hPa Calm     85 % 0.00 in /  0 mm
01:46 38.8 °F /  3.8 °C 34.4 °F /  1.3 °C 30.20 in /  1022.6 hPa Calm     84 % 0.00 in /  0 mm
01:51 38.6 °F /  3.7 °C 34.5 °F /  1.4 °C 30.20 in /  1022.6 hPa Calm     85 % 0.00 in /  0 mm
01:56 38.7 °F /  3.7 °C 34.9 °F /  1.6 °C 30.20 in /  1022.6 hPa Calm     86 % 0.00 in /  0 mm
02:01 39.0 °F /  3.9 °C 35.2 °F /  1.8 °C 30.20 in /  1022.6 hPa Calm     86 % 0.00 in /  0 mm
02:06 39.1 °F /  3.9 °C 34.7 °F /  1.5 °C 30.20 in /  1022.6 hPa WNW 6.9 mph /  11.1 km/h   84 % 0.00 in /  0 mm
02:11 39.2 °F /  4 °C 34.8 °F /  1.6 °C 30.20 in /  1022.6 hPa Calm     84 % 0.00 in /  0 mm
02:16 39.1 °F /  3.9 °C 35.0 °F /  1.7 °C 30.20 in /  1022.6 hPa Calm     85 % 0.00 in /  0 mm
02:21 38.9 °F /  3.8 °C 34.8 °F /  1.6 °C 30.20 in /  1022.6 hPa Calm     85 % 0.00 in /  0 mm
02:26 39.0 °F /  3.9 °C 34.9 °F /  1.6 °C 30.20 in /  1022.6 hPa Calm     85 % 0.00 in /  0 mm
02:31 38.9 °F /  3.8 °C 34.5 °F /  1.4 °C 30.19 in /  1022.2 hPa Calm     84 % 0.00 in /  0 mm
02:36 38.8 °F /  3.8 °C 34.4 °F /  1.3 °C 30.20 in /  1022.6 hPa Calm     84 % 0.00 in /  0 mm
02:41 38.7 °F /  3.7 °C 34.3 °F /  1.3 °C 30.20 in /  1022.6 hPa Calm     84 % 0.00 in /  0 mm
02:46 38.3 °F /  3.5 °C 33.9 °F /  1.1 °C 30.20 in /  1022.6 hPa Calm     84 % 0.00 in /  0 mm
02:51 37.9 °F /  3.3 °C 33.5 °F /  0.8 °C 30.20 in /  1022.6 hPa Calm     84 % 0.00 in /  0 mm
02:56 37.8 °F /  3.2 °C 34.0 °F /  1.1 °C 30.20 in /  1022.6 hPa Calm     86 % 0.00 in /  0 mm
03:01 37.9 °F /  3.3 °C 34.4 °F /  1.3 °C 30.20 in /  1022.6 hPa Calm     87 % 0.00 in /  0 mm
03:06 38.0 °F /  3.3 °C 34.5 °F /  1.4 °C 30.19 in /  1022.2 hPa Calm     87 % 0.00 in /  0 mm
03:11 38.0 °F /  3.3 °C 34.5 °F /  1.4 °C 30.19 in /  1022.2 hPa Calm     87 % 0.00 in /  0 mm
03:16 38.1 °F /  3.4 °C 34.6 °F /  1.4 °C 30.19 in /  1022.2 hPa Calm     87 % 0.00 in /  0 mm
03:21 38.2 °F /  3.4 °C 34.7 °F /  1.5 °C 30.19 in /  1022.2 hPa Calm     87 % 0.00 in /  0 mm
03:27 38.1 °F /  3.4 °C 34.3 °F /  1.3 °C 30.19 in /  1022.2 hPa Calm     86 % 0.00 in /  0 mm
03:32 38.0 °F /  3.3 °C 34.2 °F /  1.2 °C 30.19 in /  1022.2 hPa Calm     86 % 0.00 in /  0 mm
03:37 37.9 °F /  3.3 °C 34.1 °F /  1.2 °C 30.19 in /  1022.2 hPa Calm     86 % 0.00 in /  0 mm
03:42 37.9 °F /  3.3 °C 34.1 °F /  1.2 °C 30.19 in /  1022.2 hPa Calm     86 % 0.00 in /  0 mm
03:47 37.8 °F /  3.2 °C 34.0 °F /  1.1 °C 30.19 in /  1022.2 hPa Calm     86 % 0.00 in /  0 mm
03:52 37.6 °F /  3.1 °C 33.5 °F /  0.8 °C 30.19 in /  1022.2 hPa Calm     85 % 0.00 in /  0 mm
03:57 37.3 °F /  2.9 °C 33.2 °F /  0.7 °C 30.19 in /  1022.2 hPa Calm     85 % 0.00 in /  0 mm
04:02 37.2 °F /  2.9 °C 33.4 °F /  0.8 °C 30.19 in /  1022.2 hPa Calm     86 % 0.00 in /  0 mm
04:07 37.2 °F /  2.9 °C 33.7 °F /  0.9 °C 30.19 in /  1022.2 hPa Calm     87 % 0.00 in /  0 mm
04:12 37.6 °F /  3.1 °C 34.1 °F /  1.2 °C 30.19 in /  1022.2 hPa Calm     87 % 0.00 in /  0 mm
04:17 38.2 °F /  3.4 °C 34.4 °F /  1.3 °C 30.19 in /  1022.2 hPa Calm     86 % 0.00 in /  0 mm
04:22 38.4 °F /  3.6 °C 34.3 °F /  1.3 °C 30.19 in /  1022.2 hPa Calm     85 % 0.00 in /  0 mm
04:27 38.3 °F /  3.5 °C 34.2 °F /  1.2 °C 30.19 in /  1022.2 hPa Calm     85 % 0.00 in /  0 mm
04:32 38.2 °F /  3.4 °C 34.1 °F /  1.2 °C 30.19 in /  1022.2 hPa Calm     85 % 0.00 in /  0 mm
04:37 37.9 °F /  3.3 °C 33.8 °F /  1 °C 30.18 in /  1021.9 hPa Calm     85 % 0.00 in /  0 mm
04:42 38.0 °F /  3.3 °C 34.2 °F /  1.2 °C 30.18 in /  1021.9 hPa Calm     86 % 0.00 in /  0 mm
04:47 37.9 °F /  3.3 °C 33.5 °F /  0.8 °C 30.18 in /  1021.9 hPa North 1.2 mph /  1.9 km/h   84 % 0.00 in /  0 mm
04:52 37.7 °F /  3.2 °C 33.3 °F /  0.7 °C 30.18 in /  1021.9 hPa Calm     84 % 0.00 in /  0 mm
04:57 37.6 °F /  3.1 °C 33.5 °F /  0.8 °C 30.18 in /  1021.9 hPa Calm     85 % 0.00 in /  0 mm
05:02 37.3 °F /  2.9 °C 33.2 °F /  0.7 °C 30.18 in /  1021.9 hPa Calm     85 % 0.00 in /  0 mm
05:07 37.2 °F /  2.9 °C 33.4 °F /  0.8 °C 30.18 in /  1021.9 hPa Calm     86 % 0.00 in /  0 mm
05:12 37.1 °F /  2.8 °C 33.6 °F /  0.9 °C 30.18 in /  1021.9 hPa Calm     87 % 0.00 in /  0 mm
05:17 37.2 °F /  2.9 °C 33.7 °F /  0.9 °C 30.18 in /  1021.9 hPa Calm     87 % 0.00 in /  0 mm
05:22 37.2 °F /  2.9 °C 33.7 °F /  0.9 °C 30.18 in /  1021.9 hPa Calm     87 % 0.00 in /  0 mm
05:27 37.3 °F /  2.9 °C 33.8 °F /  1 °C 30.18 in /  1021.9 hPa Calm     87 % 0.00 in /  0 mm
05:32 37.3 °F /  2.9 °C 33.5 °F /  0.8 °C 30.18 in /  1021.9 hPa Calm     86 % 0.00 in /  0 mm
05:37 37.3 °F /  2.9 °C 33.5 °F /  0.8 °C 30.18 in /  1021.9 hPa Calm     86 % 0.00 in /  0 mm
05:42 37.3 °F /  2.9 °C 33.5 °F /  0.8 °C 30.18 in /  1021.9 hPa Calm     86 % 0.00 in /  0 mm
05:47 37.1 °F /  2.8 °C 33.3 °F /  0.7 °C 30.18 in /  1021.9 hPa Calm     86 % 0.00 in /  0 mm
05:52 36.8 °F /  2.7 °C 33.0 °F /  0.6 °C 30.18 in /  1021.9 hPa Calm     86 % 0.00 in /  0 mm
05:57 36.7 °F /  2.6 °C 33.2 °F /  0.7 °C 30.18 in /  1021.9 hPa Calm     87 % 0.00 in /  0 mm
06:02 36.8 °F /  2.7 °C 33.3 °F /  0.7 °C 30.18 in /  1021.9 hPa Calm     87 % 0.00 in /  0 mm
06:07 37.1 °F /  2.8 °C 33.9 °F /  1.1 °C 30.18 in /  1021.9 hPa Calm     88 % 0.00 in /  0 mm
06:12 37.3 °F /  2.9 °C 33.8 °F /  1 °C 30.18 in /  1021.9 hPa Calm     87 % 0.00 in /  0 mm
06:17 37.1 °F /  2.8 °C 33.3 °F /  0.7 °C 30.18 in /  1021.9 hPa Calm     86 % 0.00 in /  0 mm
06:22 37.1 °F /  2.8 °C 33.6 °F /  0.9 °C 30.18 in /  1021.9 hPa Calm     87 % 0.00 in /  0 mm
06:27 37.3 °F /  2.9 °C 34.1 °F /  1.2 °C 30.18 in /  1021.9 hPa Calm     88 % 0.00 in /  0 mm
06:32 37.5 °F /  3.1 °C 34.0 °F /  1.1 °C 30.18 in /  1021.9 hPa Calm     87 % 0.00 in /  0 mm
06:37 37.5 °F /  3.1 °C 34.0 °F /  1.1 °C 30.18 in /  1021.9 hPa Calm     87 % 0.00 in /  0 mm
06:42 37.5 °F /  3.1 °C 33.7 °F /  0.9 °C 30.18 in /  1021.9 hPa Calm     86 % 0.00 in /  0 mm
06:47 37.3 °F /  2.9 °C 33.5 °F /  0.8 °C 30.18 in /  1021.9 hPa Calm     86 % 0.00 in /  0 mm
06:53 37.3 °F /  2.9 °C 33.5 °F /  0.8 °C 30.18 in /  1021.9 hPa Calm     86 % 0.00 in /  0 mm
06:58 37.4 °F /  3 °C 33.6 °F /  0.9 °C 30.19 in /  1022.2 hPa Calm     86 % 0.00 in /  0 mm
07:03 37.3 °F /  2.9 °C 33.5 °F /  0.8 °C 30.19 in /  1022.2 hPa Calm     86 % 0.00 in /  0 mm
07:08 37.2 °F /  2.9 °C 33.4 °F /  0.8 °C 30.19 in /  1022.2 hPa Calm     86 % 0.00 in /  0 mm
07:13 37.1 °F /  2.8 °C 33.3 °F /  0.7 °C 30.19 in /  1022.2 hPa Calm     86 % 0.00 in /  0 mm
07:18 37.2 °F /  2.9 °C 33.4 °F /  0.8 °C 30.19 in /  1022.2 hPa Calm     86 % 0.00 in /  0 mm
07:23 37.1 °F /  2.8 °C 33.0 °F /  0.6 °C 30.19 in /  1022.2 hPa Calm     85 % 0.00 in /  0 mm
07:28 37.0 °F /  2.8 °C 33.2 °F /  0.7 °C 30.20 in /  1022.6 hPa Calm     86 % 0.00 in /  0 mm
07:33 37.1 °F /  2.8 °C 33.6 °F /  0.9 °C 30.20 in /  1022.6 hPa Calm     87 % 0.00 in /  0 mm
07:38 37.3 °F /  2.9 °C 34.1 °F /  1.2 °C 30.20 in /  1022.6 hPa Calm     88 % 0.00 in /  0 mm
07:43 37.7 °F /  3.2 °C 34.5 °F /  1.4 °C 30.20 in /  1022.6 hPa Calm     88 % 0.00 in /  0 mm
07:48 39.1 °F /  3.9 °C 36.1 °F /  2.3 °C 30.20 in /  1022.6 hPa Calm     89 % 0.00 in /  0 mm
07:53 41.0 °F /  5 °C 37.4 °F /  3 °C 30.21 in /  1022.9 hPa Calm     87 % 0.00 in /  0 mm
07:58 42.4 °F /  5.8 °C 37.3 °F /  2.9 °C 30.21 in /  1022.9 hPa Calm     82 % 0.00 in /  0 mm
08:03 42.8 °F /  6 °C 37.4 °F /  3 °C 30.21 in /  1022.9 hPa Calm     81 % 0.00 in /  0 mm
08:08 43.5 °F /  6.4 °C 37.7 °F /  3.2 °C 30.21 in /  1022.9 hPa Calm     80 % 0.00 in /  0 mm
08:13 44.6 °F /  7 °C 38.5 °F /  3.6 °C 30.21 in /  1022.9 hPa Calm     79 % 0.00 in /  0 mm
08:18 45.7 °F /  7.6 °C 38.9 °F /  3.8 °C 30.21 in /  1022.9 hPa Calm     77 % 0.00 in /  0 mm
08:23 46.8 °F /  8.2 °C 38.9 °F /  3.8 °C 30.21 in /  1022.9 hPa Calm     74 % 0.00 in /  0 mm
08:28 47.9 °F /  8.8 °C 39.3 °F /  4.1 °C 30.21 in /  1022.9 hPa Calm     72 % 0.00 in /  0 mm
08:33 49.7 °F /  9.8 °C 39.2 °F /  4 °C 30.21 in /  1022.9 hPa SE 1.2 mph /  1.9 km/h 1.2 mph /  1.9 km/h 67 % 0.00 in /  0 mm
08:38 51.1 °F /  10.6 °C 40.1 °F /  4.5 °C 30.21 in /  1022.9 hPa Calm     66 % 0.00 in /  0 mm
08:43 52.4 °F /  11.3 °C 41.0 °F /  5 °C 30.21 in /  1022.9 hPa SE 1.2 mph /  1.9 km/h   65 % 0.00 in /  0 mm
08:48 52.9 °F /  11.6 °C 40.2 °F /  4.6 °C 30.21 in /  1022.9 hPa SE 1.2 mph /  1.9 km/h 1.2 mph /  1.9 km/h 62 % 0.00 in /  0 mm
08:53 53.0 °F /  11.7 °C 40.3 °F /  4.6 °C 30.21 in /  1022.9 hPa Calm   0.2 mph /  0.3 km/h 62 % 0.00 in /  0 mm
08:58 53.7 °F /  12.1 °C 40.1 °F /  4.5 °C 30.21 in /  1022.9 hPa SSE 2.3 mph /  3.7 km/h 2.3 mph /  3.7 km/h 60 % 0.00 in /  0 mm
09:03 54.3 °F /  12.4 °C 40.7 °F /  4.8 °C 30.21 in /  1022.9 hPa Calm     60 % 0.00 in /  0 mm
09:08 54.5 °F /  12.5 °C 39.6 °F /  4.2 °C 30.21 in /  1022.9 hPa ESE 1.0 mph /  1.6 km/h 1.0 mph /  1.6 km/h 57 % 0.00 in /  0 mm
09:13 54.8 °F /  12.7 °C 39.8 °F /  4.3 °C 30.21 in /  1022.9 hPa South 2.3 mph /  3.7 km/h 2.3 mph /  3.7 km/h 57 % 0.00 in /  0 mm
09:18 55.3 °F /  12.9 °C 40.3 °F /  4.6 °C 30.21 in /  1022.9 hPa South 3.5 mph /  5.6 km/h 3.5 mph /  5.6 km/h 57 % 0.00 in /  0 mm
09:23 55.8 °F /  13.2 °C 39.9 °F /  4.4 °C 30.21 in /  1022.9 hPa SE 2.3 mph /  3.7 km/h 2.3 mph /  3.7 km/h 55 % 0.00 in /  0 mm
09:28 56.1 °F /  13.4 °C 40.1 °F /  4.5 °C 30.21 in /  1022.9 hPa ENE 3.5 mph /  5.6 km/h 3.5 mph /  5.6 km/h 55 % 0.00 in /  0 mm
09:33 56.5 °F /  13.6 °C 39.6 °F /  4.2 °C 30.21 in /  1022.9 hPa ENE 3.5 mph /  5.6 km/h 3.5 mph /  5.6 km/h 53 % 0.00 in /  0 mm
09:38 56.8 °F /  13.8 °C 40.3 °F /  4.6 °C 30.21 in /  1022.9 hPa SSE 2.3 mph /  3.7 km/h 2.3 mph /  3.7 km/h 54 % 0.00 in /  0 mm
09:43 57.3 °F /  14.1 °C 40.3 °F /  4.6 °C 30.21 in /  1022.9 hPa SE 2.3 mph /  3.7 km/h 2.3 mph /  3.7 km/h 53 % 0.00 in /  0 mm
09:48 57.7 °F /  14.3 °C 41.2 °F /  5.1 °C 30.21 in /  1022.9 hPa SSE 2.0 mph /  3.2 km/h 2.0 mph /  3.2 km/h 54 % 0.00 in /  0 mm
09:53 58.0 °F /  14.4 °C 41.0 °F /  5 °C 30.21 in /  1022.9 hPa SSE 2.3 mph /  3.7 km/h 2.3 mph /  3.7 km/h 53 % 0.00 in /  0 mm
09:58 58.3 °F /  14.6 °C 40.7 °F /  4.8 °C 30.21 in /  1022.9 hPa SSE 3.5 mph /  5.6 km/h 3.5 mph /  5.6 km/h 52 % 0.00 in /  0 mm
10:03 58.6 °F /  14.8 °C 40.5 °F /  4.7 °C 30.20 in /  1022.6 hPa Calm     51 % 0.00 in /  0 mm
10:08 58.9 °F /  14.9 °C 40.8 °F /  4.9 °C 30.20 in /  1022.6 hPa SSE 1.2 mph /  1.9 km/h 1.2 mph /  1.9 km/h 51 % 0.00 in /  0 mm
10:13 59.6 °F /  15.3 °C 41.4 °F /  5.2 °C 30.20 in /  1022.6 hPa South 1.2 mph /  1.9 km/h   51 % 0.00 in /  0 mm
10:18 60.2 °F /  15.7 °C 41.0 °F /  5 °C 30.20 in /  1022.6 hPa SSE 1.2 mph /  1.9 km/h 1.2 mph /  1.9 km/h 49 % 0.00 in /  0 mm
10:23 60.6 °F /  15.9 °C 40.2 °F /  4.6 °C 30.20 in /  1022.6 hPa NW 1.0 mph /  1.6 km/h 1.0 mph /  1.6 km/h 47 % 0.00 in /  0 mm
10:28 60.6 °F /  15.9 °C 41.3 °F /  5.2 °C 30.20 in /  1022.6 hPa ENE 1.2 mph /  1.9 km/h 1.2 mph /  1.9 km/h 49 % 0.00 in /  0 mm
10:33 60.6 °F /  15.9 °C 40.8 °F /  4.9 °C 30.20 in /  1022.6 hPa NW 2.3 mph /  3.7 km/h 2.3 mph /  3.7 km/h 48 % 0.00 in /  0 mm
10:38 60.6 °F /  15.9 °C 40.2 °F /  4.6 °C 30.19 in /  1022.2 hPa NNW 2.3 mph /  3.7 km/h 2.3 mph /  3.7 km/h 47 % 0.00 in /  0 mm
10:43 60.6 °F /  15.9 °C 40.8 °F /  4.9 °C 30.19 in /  1022.2 hPa SSW 2.0 mph /  3.2 km/h 2.0 mph /  3.2 km/h 48 % 0.00 in /  0 mm
10:48 60.9 °F /  16.1 °C 40.5 °F /  4.7 °C 30.19 in /  1022.2 hPa SSE 2.3 mph /  3.7 km/h 2.3 mph /  3.7 km/h 47 % 0.00 in /  0 mm
10:53 61.1 °F /  16.2 °C 41.2 °F /  5.1 °C 30.19 in /  1022.2 hPa WSW 1.2 mph /  1.9 km/h   48 % 0.00 in /  0 mm
10:58 61.8 °F /  16.6 °C 39.6 °F /  4.2 °C 30.19 in /  1022.2 hPa East 2.3 mph /  3.7 km/h 2.3 mph /  3.7 km/h 44 % 0.00 in /  0 mm
11:03 62.6 °F /  17 °C 39.8 °F /  4.3 °C 30.19 in /  1022.2 hPa SSE 2.3 mph /  3.7 km/h 2.3 mph /  3.7 km/h 43 % 0.00 in /  0 mm
11:09 63.2 °F /  17.3 °C 40.9 °F /  4.9 °C 30.18 in /  1021.9 hPa ESE 2.3 mph /  3.7 km/h 2.3 mph /  3.7 km/h 44 % 0.00 in /  0 mm
11:14 63.7 °F /  17.6 °C 40.8 °F /  4.9 °C 30.18 in /  1021.9 hPa SSE 1.2 mph /  1.9 km/h 1.2 mph /  1.9 km/h 43 % 0.00 in /  0 mm
11:19 64.1 °F /  17.8 °C 38.6 °F /  3.7 °C 30.18 in /  1021.9 hPa NW 2.3 mph /  3.7 km/h 2.3 mph /  3.7 km/h 39 % 0.00 in /  0 mm
11:24 63.6 °F /  17.6 °C 37.5 °F /  3.1 °C 30.18 in /  1021.9 hPa North 3.5 mph /  5.6 km/h 3.5 mph /  5.6 km/h 38 % 0.00 in /  0 mm
11:29 62.9 °F /  17.2 °C 37.5 °F /  3.1 °C 30.17 in /  1021.6 hPa WNW 2.3 mph /  3.7 km/h 2.3 mph /  3.7 km/h 39 % 0.00 in /  0 mm
11:34 62.9 °F /  17.2 °C 37.5 °F /  3.1 °C 30.17 in /  1021.6 hPa South 2.3 mph /  3.7 km/h 2.3 mph /  3.7 km/h 39 % 0.00 in /  0 mm
11:39 63.5 °F /  17.5 °C 37.4 °F /  3 °C 30.17 in /  1021.6 hPa NW 3.5 mph /  5.6 km/h 3.5 mph /  5.6 km/h 38 % 0.00 in /  0 mm
11:44 63.4 °F /  17.4 °C 38.6 °F /  3.7 °C 30.17 in /  1021.6 hPa NNW 1.2 mph /  1.9 km/h 1.2 mph /  1.9 km/h 40 % 0.00 in /  0 mm
11:49 64.2 °F /  17.9 °C 38.7 °F /  3.7 °C 30.16 in /  1021.2 hPa ENE 1.2 mph /  1.9 km/h 1.2 mph /  1.9 km/h 39 % 0.00 in /  0 mm
11:54 64.6 °F /  18.1 °C 38.4 °F /  3.6 °C 30.16 in /  1021.2 hPa NNW 2.3 mph /  3.7 km/h 2.3 mph /  3.7 km/h 38 % 0.00 in /  0 mm
11:59 64.9 °F /  18.3 °C 37.3 °F /  2.9 °C 30.16 in /  1021.2 hPa West 2.3 mph /  3.7 km/h 2.3 mph /  3.7 km/h 36 % 0.00 in /  0 mm
12:04 64.7 °F /  18.2 °C 36.4 °F /  2.4 °C 30.16 in /  1021.2 hPa NW 1.2 mph /  1.9 km/h 1.2 mph /  1.9 km/h 35 % 0.00 in /  0 mm
12:09 65.0 °F /  18.3 °C 37.4 °F /  3 °C 30.15 in /  1020.9 hPa East 2.3 mph /  3.7 km/h 2.3 mph /  3.7 km/h 36 % 0.00 in /  0 mm
12:14 65.7 °F /  18.7 °C 36.5 °F /  2.5 °C 30.15 in /  1020.9 hPa East 2.3 mph /  3.7 km/h 2.3 mph /  3.7 km/h 34 % 0.00 in /  0 mm
12:19 66.3 °F /  19.1 °C 37.8 °F /  3.2 °C 30.15 in /  1020.9 hPa SSE 3.5 mph /  5.6 km/h 3.5 mph /  5.6 km/h 35 % 0.00 in /  0 mm
12:24 66.9 °F /  19.4 °C 38.3 °F /  3.5 °C 30.14 in /  1020.5 hPa North 2.3 mph /  3.7 km/h 2.3 mph /  3.7 km/h 35 % 0.00 in /  0 mm
12:29 67.2 °F /  19.6 °C 37.1 °F /  2.8 °C 30.14 in /  1020.5 hPa ESE 1.2 mph /  1.9 km/h 1.2 mph /  1.9 km/h 33 % 0.00 in /  0 mm
12:34 67.0 °F /  19.4 °C 36.9 °F /  2.7 °C 30.14 in /  1020.5 hPa NW 3.0 mph /  4.8 km/h 3.0 mph /  4.8 km/h 33 % 0.00 in /  0 mm
12:39 66.8 °F /  19.3 °C 37.5 °F /  3.1 °C 30.14 in /  1020.5 hPa NNE 1.2 mph /  1.9 km/h 1.2 mph /  1.9 km/h 34 % 0.00 in /  0 mm
12:44 67.0 °F /  19.4 °C 37.7 °F /  3.2 °C 30.13 in /  1020.2 hPa WNW 1.2 mph /  1.9 km/h 1.2 mph /  1.9 km/h 34 % 0.00 in /  0 mm
12:49 67.1 °F /  19.5 °C 37.8 °F /  3.2 °C 30.13 in /  1020.2 hPa NW 3.5 mph /  5.6 km/h 3.5 mph /  5.6 km/h 34 % 0.00 in /  0 mm
12:54 67.2 °F /  19.6 °C 37.9 °F /  3.3 °C 30.12 in /  1019.9 hPa NW 2.3 mph /  3.7 km/h 2.3 mph /  3.7 km/h 34 % 0.00 in /  0 mm
12:59 67.3 °F /  19.6 °C 37.2 °F /  2.9 °C 30.12 in /  1019.9 hPa SW 1.2 mph /  1.9 km/h 1.2 mph /  1.9 km/h 33 % 0.00 in /  0 mm
13:05 68.1 °F /  20.1 °C 40.1 °F /  4.5 °C 30.12 in /  1019.9 hPa SSE 3.5 mph /  5.6 km/h 3.5 mph /  5.6 km/h 36 % 0.00 in /  0 mm
13:10 68.8 °F /  20.4 °C 37.7 °F /  3.2 °C 30.11 in /  1019.5 hPa NW 2.3 mph /  3.7 km/h 2.3 mph /  3.7 km/h 32 % 0.00 in /  0 mm
13:15 68.6 °F /  20.3 °C 36.7 °F /  2.6 °C 30.11 in /  1019.5 hPa SE 2.3 mph /  3.7 km/h 2.3 mph /  3.7 km/h 31 % 0.00 in /  0 mm
13:20 69.1 °F /  20.6 °C 38.0 °F /  3.3 °C 30.11 in /  1019.5 hPa ESE 1.2 mph /  1.9 km/h 1.2 mph /  1.9 km/h 32 % 0.00 in /  0 mm
13:25 69.0 °F /  20.6 °C 37.1 °F /  2.8 °C 30.10 in /  1019.2 hPa WNW 2.3 mph /  3.7 km/h 2.3 mph /  3.7 km/h 31 % 0.00 in /  0 mm
13:30 68.7 °F /  20.4 °C 35.1 °F /  1.7 °C 30.10 in /  1019.2 hPa NW 1.2 mph /  1.9 km/h 1.2 mph /  1.9 km/h 29 % 0.00 in /  0 mm
13:35 68.6 °F /  20.3 °C 35.9 °F /  2.2 °C 30.10 in /  1019.2 hPa NW 2.3 mph /  3.7 km/h 2.3 mph /  3.7 km/h 30 % 0.00 in /  0 mm
13:40 68.5 °F /  20.3 °C 35.0 °F /  1.7 °C 30.10 in /  1019.2 hPa NW 2.3 mph /  3.7 km/h 2.3 mph /  3.7 km/h 29 % 0.00 in /  0 mm
13:45 68.7 °F /  20.4 °C 35.1 °F /  1.7 °C 30.09 in /  1018.8 hPa WNW 2.3 mph /  3.7 km/h 2.3 mph /  3.7 km/h 29 % 0.00 in /  0 mm
13:50 68.6 °F /  20.3 °C 35.1 °F /  1.7 °C 30.09 in /  1018.8 hPa WNW 3.5 mph /  5.6 km/h 3.5 mph /  5.6 km/h 29 % 0.00 in /  0 mm
13:55 68.6 °F /  20.3 °C 35.9 °F /  2.2 °C 30.09 in /  1018.8 hPa WNW 1.2 mph /  1.9 km/h 1.2 mph /  1.9 km/h 30 % 0.00 in /  0 mm
14:00 68.8 °F /  20.4 °C 36.1 °F /  2.3 °C 30.09 in /  1018.8 hPa NW 3.5 mph /  5.6 km/h 3.5 mph /  5.6 km/h 30 % 0.00 in /  0 mm
14:05 68.9 °F /  20.5 °C 37.0 °F /  2.8 °C 30.08 in /  1018.5 hPa ESE 1.2 mph /  1.9 km/h 1.2 mph /  1.9 km/h 31 % 0.00 in /  0 mm
14:10 69.7 °F /  20.9 °C 36.0 °F /  2.2 °C 30.08 in /  1018.5 hPa NNW 3.5 mph /  5.6 km/h 3.5 mph /  5.6 km/h 29 % 0.00 in /  0 mm
14:15 69.8 °F /  21 °C 36.1 °F /  2.3 °C 30.08 in /  1018.5 hPa North 1.2 mph /  1.9 km/h 1.2 mph /  1.9 km/h 29 % 0.00 in /  0 mm
14:20 69.9 °F /  21.1 °C 36.2 °F /  2.3 °C 30.08 in /  1018.5 hPa NW 3.5 mph /  5.6 km/h 3.5 mph /  5.6 km/h 29 % 0.00 in /  0 mm
14:25 69.7 °F /  20.9 °C 36.9 °F /  2.7 °C 30.08 in /  1018.5 hPa NW 1.2 mph /  1.9 km/h 1.2 mph /  1.9 km/h 30 % 0.00 in /  0 mm
14:30 69.9 °F /  21.1 °C 35.3 °F /  1.8 °C 30.08 in /  1018.5 hPa WNW 2.3 mph /  3.7 km/h 2.3 mph /  3.7 km/h 28 % 0.00 in /  0 mm
14:35 69.8 °F /  21 °C 36.9 °F /  2.7 °C 30.07 in /  1018.2 hPa NW 2.3 mph /  3.7 km/h 2.3 mph /  3.7 km/h 30 % 0.00 in /  0 mm
14:40 69.7 °F /  20.9 °C 36.9 °F /  2.7 °C 30.07 in /  1018.2 hPa NW 2.3 mph /  3.7 km/h 2.3 mph /  3.7 km/h 30 % 0.00 in /  0 mm
14:45 69.9 °F /  21.1 °C 36.2 °F /  2.3 °C 30.07 in /  1018.2 hPa NNW 3.5 mph /  5.6 km/h 3.5 mph /  5.6 km/h 29 % 0.00 in /  0 mm
14:50 69.9 °F /  21.1 °C 37.0 °F /  2.8 °C 30.07 in /  1018.2 hPa SSE 1.2 mph /  1.9 km/h 1.2 mph /  1.9 km/h 30 % 0.00 in /  0 mm
14:55 70.1 °F /  21.2 °C 36.3 °F /  2.4 °C 30.06 in /  1017.8 hPa NW 3.5 mph /  5.6 km/h 3.5 mph /  5.6 km/h 29 % 0.00 in /  0 mm
15:00 70.1 °F /  21.2 °C 35.5 °F /  1.9 °C 30.06 in /  1017.8 hPa WNW 3.5 mph /  5.6 km/h 3.5 mph /  5.6 km/h 28 % 0.00 in /  0 mm
15:05 70.0 °F /  21.1 °C 35.4 °F /  1.9 °C 30.06 in /  1017.8 hPa WNW 2.3 mph /  3.7 km/h 2.3 mph /  3.7 km/h 28 % 0.00 in /  0 mm
15:10 70.0 °F /  21.1 °C 35.4 °F /  1.9 °C 30.06 in /  1017.8 hPa Calm     28 % 0.00 in /  0 mm
15:15 70.0 °F /  21.1 °C 35.4 °F /  1.9 °C 30.05 in /  1017.5 hPa NW 2.3 mph /  3.7 km/h 2.3 mph /  3.7 km/h 28 % 0.00 in /  0 mm
15:20 70.0 °F /  21.1 °C 36.3 °F /  2.4 °C 30.05 in /  1017.5 hPa NNW 2.3 mph /  3.7 km/h 2.3 mph /  3.7 km/h 29 % 0.00 in /  0 mm
15:25 70.0 °F /  21.1 °C 36.3 °F /  2.4 °C 30.05 in /  1017.5 hPa Calm     29 % 0.00 in /  0 mm
15:30 69.8 °F /  21 °C 34.3 °F /  1.3 °C 30.05 in /  1017.5 hPa WNW 1.2 mph /  1.9 km/h   27 % 0.00 in /  0 mm
15:35 69.6 °F /  20.9 °C 35.9 °F /  2.2 °C 30.05 in /  1017.5 hPa NNW 1.2 mph /  1.9 km/h 1.2 mph /  1.9 km/h 29 % 0.00 in /  0 mm
15:40 69.6 °F /  20.9 °C 35.0 °F /  1.7 °C 30.05 in /  1017.5 hPa NW 3.5 mph /  5.6 km/h 3.5 mph /  5.6 km/h 28 % 0.00 in /  0 mm
15:45 69.5 °F /  20.8 °C 35.8 °F /  2.1 °C 30.05 in /  1017.5 hPa NW 1.2 mph /  1.9 km/h 1.2 mph /  1.9 km/h 29 % 0.00 in /  0 mm
15:50 69.6 °F /  20.9 °C 35.9 °F /  2.2 °C 30.05 in /  1017.5 hPa WNW 2.3 mph /  3.7 km/h   29 % 0.00 in /  0 mm
15:55 69.6 °F /  20.9 °C 35.0 °F /  1.7 °C 30.05 in /  1017.5 hPa WNW 3.5 mph /  5.6 km/h 3.5 mph /  5.6 km/h 28 % 0.00 in /  0 mm
16:00 69.5 °F /  20.8 °C 34.9 °F /  1.6 °C 30.05 in /  1017.5 hPa NW 1.2 mph /  1.9 km/h 1.2 mph /  1.9 km/h 28 % 0.00 in /  0 mm
16:05 69.5 °F /  20.8 °C 35.8 °F /  2.1 °C 30.05 in /  1017.5 hPa NW 2.3 mph /  3.7 km/h 2.3 mph /  3.7 km/h 29 % 0.00 in /  0 mm
16:10 69.4 °F /  20.8 °C 36.6 °F /  2.6 °C 30.05 in /  1017.5 hPa NW 3.5 mph /  5.6 km/h 3.5 mph /  5.6 km/h 30 % 0.00 in /  0 mm
16:15 69.2 °F /  20.7 °C 36.4 °F /  2.4 °C 30.05 in /  1017.5 hPa NW 3.5 mph /  5.6 km/h 3.5 mph /  5.6 km/h 30 % 0.00 in /  0 mm
16:20 69.1 °F /  20.6 °C 36.3 °F /  2.4 °C 30.05 in /  1017.5 hPa WNW 2.3 mph /  3.7 km/h 2.3 mph /  3.7 km/h 30 % 0.00 in /  0 mm
16:25 68.9 °F /  20.5 °C 36.2 °F /  2.3 °C 30.05 in /  1017.5 hPa NW 2.3 mph /  3.7 km/h 2.3 mph /  3.7 km/h 30 % 0.00 in /  0 mm
16:30 68.8 °F /  20.4 °C 36.9 °F /  2.7 °C 30.05 in /  1017.5 hPa NNW 2.3 mph /  3.7 km/h 2.3 mph /  3.7 km/h 31 % 0.00 in /  0 mm
16:35 68.6 °F /  20.3 °C 36.7 °F /  2.6 °C 30.05 in /  1017.5 hPa WNW 2.3 mph /  3.7 km/h 2.3 mph /  3.7 km/h 31 % 0.00 in /  0 mm
16:40 68.4 °F /  20.2 °C 37.4 °F /  3 °C 30.05 in /  1017.5 hPa NW 2.3 mph /  3.7 km/h 2.3 mph /  3.7 km/h 32 % 0.00 in /  0 mm
16:45 68.1 °F /  20.1 °C 37.9 °F /  3.3 °C 30.05 in /  1017.5 hPa NW 2.3 mph /  3.7 km/h 2.3 mph /  3.7 km/h 33 % 0.00 in /  0 mm
16:50 67.9 °F /  19.9 °C 37.7 °F /  3.2 °C 30.05 in /  1017.5 hPa NW 1.0 mph /  1.6 km/h 1.0 mph /  1.6 km/h 33 % 0.00 in /  0 mm
16:55 67.7 °F /  19.8 °C 38.3 °F /  3.5 °C 30.05 in /  1017.5 hPa NW 1.2 mph /  1.9 km/h 1.2 mph /  1.9 km/h 34 % 0.00 in /  0 mm
17:00 67.4 °F /  19.7 °C 37.3 °F /  2.9 °C 30.05 in /  1017.5 hPa NW 1.2 mph /  1.9 km/h 1.5 mph /  2.4 km/h 33 % 0.00 in /  0 mm
17:05 67.1 °F /  19.5 °C 37.8 °F /  3.2 °C 30.05 in /  1017.5 hPa NNW 2.3 mph /  3.7 km/h 2.3 mph /  3.7 km/h 34 % 0.00 in /  0 mm
17:10 66.8 °F /  19.3 °C 37.5 °F /  3.1 °C 30.05 in /  1017.5 hPa NW 1.2 mph /  1.9 km/h 1.2 mph /  1.9 km/h 34 % 0.00 in /  0 mm
17:15 66.4 °F /  19.1 °C 37.2 °F /  2.9 °C 30.05 in /  1017.5 hPa NW 2.3 mph /  3.7 km/h 2.3 mph /  3.7 km/h 34 % 0.00 in /  0 mm
17:20 66.0 °F /  18.9 °C 37.5 °F /  3.1 °C 30.04 in /  1017.2 hPa Calm     35 % 0.00 in /  0 mm
17:25 65.5 °F /  18.6 °C 37.8 °F /  3.2 °C 30.04 in /  1017.2 hPa Calm     36 % 0.00 in /  0 mm
17:30 64.9 °F /  18.3 °C 38.7 °F /  3.7 °C 30.04 in /  1017.2 hPa Calm     38 % 0.00 in /  0 mm
17:35 64.2 °F /  17.9 °C 38.0 °F /  3.3 °C 30.04 in /  1017.2 hPa Calm     38 % 0.00 in /  0 mm
17:40 63.5 °F /  17.5 °C 38.1 °F /  3.4 °C 30.04 in /  1017.2 hPa Calm     39 % 0.00 in /  0 mm
17:45 62.7 °F /  17.1 °C 38.6 °F /  3.7 °C 30.04 in /  1017.2 hPa Calm     41 % 0.00 in /  0 mm
17:50 62.0 °F /  16.7 °C 39.2 °F /  4 °C 30.04 in /  1017.2 hPa Calm     43 % 0.00 in /  0 mm
17:55 61.1 °F /  16.2 °C 37.8 °F /  3.2 °C 30.04 in /  1017.2 hPa Calm     42 % 0.00 in /  0 mm
18:00 60.7 °F /  15.9 °C 38.6 °F /  3.7 °C 30.04 in /  1017.2 hPa Calm     44 % 0.00 in /  0 mm
18:05 60.1 °F /  15.6 °C 38.7 °F /  3.7 °C 30.04 in /  1017.2 hPa Calm     45 % 0.00 in /  0 mm
18:10 59.7 °F /  15.4 °C 39.4 °F /  4.1 °C 30.04 in /  1017.2 hPa Calm     47 % 0.00 in /  0 mm
18:15 59.2 °F /  15.1 °C 39.5 °F /  4.2 °C 30.04 in /  1017.2 hPa Calm     48 % 0.00 in /  0 mm
18:20 58.5 °F /  14.7 °C 39.9 °F /  4.4 °C 30.04 in /  1017.2 hPa Calm     50 % 0.00 in /  0 mm
18:26 57.9 °F /  14.4 °C 39.9 °F /  4.4 °C 30.04 in /  1017.2 hPa Calm     51 % 0.00 in /  0 mm
18:31 57.2 °F /  14 °C 40.2 °F /  4.6 °C 30.04 in /  1017.2 hPa Calm     53 % 0.00 in /  0 mm
18:36 56.7 °F /  13.7 °C 38.8 °F /  3.8 °C 30.04 in /  1017.2 hPa Calm     51 % 0.00 in /  0 mm
18:41 56.3 °F /  13.5 °C 39.9 °F /  4.4 °C 30.04 in /  1017.2 hPa Calm     54 % 0.00 in /  0 mm
18:46 55.7 °F /  13.2 °C 40.2 °F /  4.6 °C 30.04 in /  1017.2 hPa Calm     56 % 0.00 in /  0 mm
18:51 55.1 °F /  12.8 °C 40.6 °F /  4.8 °C 30.04 in /  1017.2 hPa Calm     58 % 0.00 in /  0 mm
18:56 54.5 °F /  12.5 °C 40.9 °F /  4.9 °C 30.04 in /  1017.2 hPa Calm     60 % 0.00 in /  0 mm
19:01 54.1 °F /  12.3 °C 40.1 °F /  4.5 °C 30.04 in /  1017.2 hPa Calm     59 % 0.00 in /  0 mm
19:06 53.9 °F /  12.2 °C 39.9 °F /  4.4 °C 30.04 in /  1017.2 hPa Calm     59 % 0.00 in /  0 mm
19:11 53.8 °F /  12.1 °C 39.4 °F /  4.1 °C 30.04 in /  1017.2 hPa Calm     58 % 0.00 in /  0 mm
19:16 53.6 °F /  12 °C 39.2 °F /  4 °C 30.04 in /  1017.2 hPa Calm     58 % 0.00 in /  0 mm
19:21 53.2 °F /  11.8 °C 39.2 °F /  4 °C 30.04 in /  1017.2 hPa Calm     59 % 0.00 in /  0 mm
19:26 52.9 °F /  11.6 °C 39.4 °F /  4.1 °C 30.04 in /  1017.2 hPa Calm     60 % 0.00 in /  0 mm
19:31 52.7 °F /  11.5 °C 39.2 °F /  4 °C 30.04 in /  1017.2 hPa Calm     60 % 0.00 in /  0 mm
19:36 52.5 °F /  11.4 °C 39.4 °F /  4.1 °C 30.04 in /  1017.2 hPa Calm     61 % 0.00 in /  0 mm
19:41 52.6 °F /  11.4 °C 39.5 °F /  4.2 °C 30.04 in /  1017.2 hPa Calm     61 % 0.00 in /  0 mm
19:46 52.6 °F /  11.4 °C 39.5 °F /  4.2 °C 30.04 in /  1017.2 hPa Calm     61 % 0.00 in /  0 mm
19:51 52.3 °F /  11.3 °C 39.2 °F /  4 °C 30.04 in /  1017.2 hPa Calm     61 % 0.00 in /  0 mm
19:56 52.1 °F /  11.2 °C 39.1 °F /  3.9 °C 30.04 in /  1017.2 hPa Calm     61 % 0.00 in /  0 mm
20:01 51.9 °F /  11.1 °C 39.3 °F /  4.1 °C 30.04 in /  1017.2 hPa Calm     62 % 0.00 in /  0 mm
20:06 51.5 °F /  10.8 °C 38.9 °F /  3.8 °C 30.04 in /  1017.2 hPa Calm     62 % 0.00 in /  0 mm
20:11 51.4 °F /  10.8 °C 39.2 °F /  4 °C 30.04 in /  1017.2 hPa Calm     63 % 0.00 in /  0 mm
20:16 51.4 °F /  10.8 °C 40.8 °F /  4.9 °C 30.04 in /  1017.2 hPa Calm     67 % 0.00 in /  0 mm
20:21 51.1 °F /  10.6 °C 41.3 °F /  5.2 °C 30.03 in /  1016.8 hPa Calm     69 % 0.00 in /  0 mm
20:26 50.4 °F /  10.2 °C 40.2 °F /  4.6 °C 30.04 in /  1017.2 hPa Calm     68 % 0.00 in /  0 mm
20:31 50.0 °F /  10 °C 39.5 °F /  4.2 °C 30.04 in /  1017.2 hPa Calm     67 % 0.00 in /  0 mm
20:36 49.9 °F /  9.9 °C 40.1 °F /  4.5 °C 30.04 in /  1017.2 hPa Calm     69 % 0.00 in /  0 mm
20:41 49.5 °F /  9.7 °C 39.4 °F /  4.1 °C 30.04 in /  1017.2 hPa Calm     68 % 0.00 in /  0 mm
20:46 49.5 °F /  9.7 °C 39.7 °F /  4.3 °C 30.04 in /  1017.2 hPa Calm     69 % 0.00 in /  0 mm
20:51 49.2 °F /  9.6 °C 39.5 °F /  4.2 °C 30.04 in /  1017.2 hPa Calm     69 % 0.00 in /  0 mm
20:56 49.0 °F /  9.4 °C 39.3 °F /  4.1 °C 30.04 in /  1017.2 hPa Calm     69 % 0.00 in /  0 mm
21:01 49.1 °F /  9.5 °C 39.7 °F /  4.3 °C 30.04 in /  1017.2 hPa Calm     70 % 0.00 in /  0 mm
21:06 48.9 °F /  9.4 °C 39.5 °F /  4.2 °C 30.05 in /  1017.5 hPa Calm     70 % 0.00 in /  0 mm
21:11 48.6 °F /  9.2 °C 39.3 °F /  4.1 °C 30.05 in /  1017.5 hPa Calm     70 % 0.00 in /  0 mm
21:16 48.3 °F /  9.1 °C 39.3 °F /  4.1 °C 30.05 in /  1017.5 hPa Calm     71 % 0.00 in /  0 mm
21:21 48.0 °F /  8.9 °C 39.4 °F /  4.1 °C 30.05 in /  1017.5 hPa Calm     72 % 0.00 in /  0 mm
21:26 47.7 °F /  8.7 °C 39.5 °F /  4.2 °C 30.05 in /  1017.5 hPa Calm     73 % 0.00 in /  0 mm
21:31 47.6 °F /  8.7 °C 39.4 °F /  4.1 °C 30.05 in /  1017.5 hPa Calm     73 % 0.00 in /  0 mm
21:36 47.6 °F /  8.7 °C 39.0 °F /  3.9 °C 30.05 in /  1017.5 hPa Calm     72 % 0.00 in /  0 mm
21:41 47.6 °F /  8.7 °C 39.0 °F /  3.9 °C 30.05 in /  1017.5 hPa Calm     72 % 0.00 in /  0 mm
21:46 47.5 °F /  8.6 °C 38.9 °F /  3.8 °C 30.05 in /  1017.5 hPa Calm     72 % 0.00 in /  0 mm
21:51 47.8 °F /  8.8 °C 38.8 °F /  3.8 °C 30.04 in /  1017.2 hPa Calm     71 % 0.00 in /  0 mm
21:56 47.8 °F /  8.8 °C 38.5 °F /  3.6 °C 30.05 in /  1017.5 hPa Calm     70 % 0.00 in /  0 mm
22:01 47.5 °F /  8.6 °C 38.9 °F /  3.8 °C 30.05 in /  1017.5 hPa Calm     72 % 0.00 in /  0 mm
22:06 47.1 °F /  8.4 °C 38.5 °F /  3.6 °C 30.05 in /  1017.5 hPa Calm     72 % 0.00 in /  0 mm
22:11 46.8 °F /  8.2 °C 38.6 °F /  3.7 °C 30.04 in /  1017.2 hPa Calm     73 % 0.00 in /  0 mm
22:16 46.3 °F /  7.9 °C 38.5 °F /  3.6 °C 30.04 in /  1017.2 hPa Calm     74 % 0.00 in /  0 mm
22:21 45.8 °F /  7.7 °C 38.3 °F /  3.5 °C 30.04 in /  1017.2 hPa Calm     75 % 0.00 in /  0 mm
22:26 45.7 °F /  7.6 °C 38.6 °F /  3.7 °C 30.04 in /  1017.2 hPa Calm     76 % 0.00 in /  0 mm
22:31 45.4 °F /  7.4 °C 38.6 °F /  3.7 °C 30.04 in /  1017.2 hPa Calm     77 % 0.00 in /  0 mm
22:36 45.2 °F /  7.3 °C 38.4 °F /  3.6 °C 30.04 in /  1017.2 hPa Calm     77 % 0.00 in /  0 mm
22:41 45.3 °F /  7.4 °C 39.2 °F /  4 °C 30.03 in /  1016.8 hPa Calm     79 % 0.00 in /  0 mm
22:46 45.4 °F /  7.4 °C 38.6 °F /  3.7 °C 30.03 in /  1016.8 hPa Calm     77 % 0.00 in /  0 mm
22:51 45.3 °F /  7.4 °C 38.5 °F /  3.6 °C 30.03 in /  1016.8 hPa Calm     77 % 0.00 in /  0 mm
22:56 45.5 °F /  7.5 °C 39.0 °F /  3.9 °C 30.03 in /  1016.8 hPa Calm     78 % 0.00 in /  0 mm
23:01 45.4 °F /  7.4 °C 38.6 °F /  3.7 °C 30.03 in /  1016.8 hPa Calm     77 % 0.00 in /  0 mm
23:06 45.1 °F /  7.3 °C 39.0 °F /  3.9 °C 30.03 in /  1016.8 hPa Calm     79 % 0.00 in /  0 mm
23:11 44.5 °F /  6.9 °C 38.1 °F /  3.4 °C 30.03 in /  1016.8 hPa Calm     78 % 0.00 in /  0 mm
23:16 44.0 °F /  6.7 °C 37.9 °F /  3.3 °C 30.03 in /  1016.8 hPa Calm     79 % 0.00 in /  0 mm
23:21 43.7 °F /  6.5 °C 37.9 °F /  3.3 °C 30.03 in /  1016.8 hPa Calm     80 % 0.00 in /  0 mm
23:26 43.6 °F /  6.4 °C 37.8 °F /  3.2 °C 30.02 in /  1016.5 hPa Calm     80 % 0.00 in /  0 mm
23:31 43.7 °F /  6.5 °C 37.9 °F /  3.3 °C 30.02 in /  1016.5 hPa Calm     80 % 0.00 in /  0 mm
23:36 44.2 °F /  6.8 °C 38.4 °F /  3.6 °C 30.02 in /  1016.5 hPa Calm     80 % 0.00 in /  0 mm
23:41 44.7 °F /  7.1 °C 38.6 °F /  3.7 °C 30.02 in /  1016.5 hPa Calm     79 % 0.00 in /  0 mm
23:46 44.7 °F /  7.1 °C 37.9 °F /  3.3 °C 30.02 in /  1016.5 hPa Calm     77 % 0.00 in /  0 mm
23:51 44.3 °F /  6.8 °C 37.9 °F /  3.3 °C 30.02 in /  1016.5 hPa Calm     78 % 0.00 in /  0 mm
23:56 43.8 °F /  6.6 °C 37.1 °F /  2.8 °C 30.02 in /  1016.5 hPa Calm     77 % 0.00 in /  0 mm
Park Place, Exeter, Tulare County, California, USA
Compliments of Weather Underground - 2.75 mb